createdAt,value
2018-04-06T00:01:20.234Z,6.30
2018-04-06T00:03:45.966Z,6.10
2018-04-06T00:06:11.720Z,5.83
2018-04-06T00:08:37.674Z,5.83
2018-04-06T00:11:03.417Z,5.70
2018-04-06T00:13:29.129Z,5.17
2018-04-06T00:15:54.893Z,5.67
2018-04-06T00:18:20.622Z,6.83
2018-04-06T00:20:46.350Z,5.67
2018-04-06T00:23:12.100Z,6.00
2018-04-06T00:25:37.824Z,5.67
2018-04-06T00:28:04.886Z,7.27
2018-04-06T00:30:30.628Z,5.80
2018-04-06T00:32:56.559Z,6.30
2018-04-06T00:35:22.341Z,5.50
2018-04-06T00:37:48.085Z,6.60
2018-04-06T00:40:13.792Z,5.37
2018-04-06T00:42:39.518Z,4.67
2018-04-06T00:45:05.269Z,5.93
2018-04-06T00:47:31.077Z,5.37
2018-04-06T00:49:57.132Z,5.47
2018-04-06T00:52:22.864Z,6.97
2018-04-06T00:54:48.597Z,5.40
2018-04-06T00:57:14.344Z,5.03
2018-04-06T00:59:40.107Z,5.37
2018-04-06T01:02:05.853Z,5.20
2018-04-06T01:04:31.576Z,4.80
2018-04-06T01:06:57.302Z,6.03
2018-04-06T01:09:23.027Z,4.67
2018-04-06T01:11:48.778Z,6.00
2018-04-06T01:14:14.519Z,5.73
2018-04-06T01:16:40.259Z,5.17
2018-04-06T01:19:06.036Z,5.50
2018-04-06T01:21:31.779Z,5.03
2018-04-06T01:23:57.519Z,5.30
2018-04-06T01:26:23.279Z,5.07
2018-04-06T01:28:49.004Z,5.20
2018-04-06T01:31:14.726Z,5.50
2018-04-06T01:33:40.457Z,5.50
2018-04-06T01:36:06.187Z,5.60
2018-04-06T01:38:31.925Z,5.73
2018-04-06T01:40:57.646Z,5.60
2018-04-06T01:43:23.369Z,5.33
2018-04-06T01:45:49.098Z,5.30
2018-04-06T01:48:14.843Z,5.03
2018-04-06T01:50:40.582Z,6.37
2018-04-06T01:53:06.318Z,5.73
2018-04-06T01:55:32.051Z,5.37
2018-04-06T01:57:57.799Z,5.03
2018-04-06T02:00:23.553Z,5.10
2018-04-06T02:02:49.311Z,5.50
2018-04-06T02:05:15.058Z,4.57
2018-04-06T02:07:40.817Z,5.37
2018-04-06T02:10:06.574Z,5.17
2018-04-06T02:12:32.436Z,5.20
2018-04-06T02:14:58.174Z,5.93
2018-04-06T02:17:23.917Z,7.03
2018-04-06T02:19:49.652Z,6.60
2018-04-06T02:22:15.389Z,6.23
2018-04-06T02:24:41.184Z,5.63
2018-04-06T02:27:06.871Z,6.43
2018-04-06T02:29:32.608Z,6.20
2018-04-06T02:31:58.342Z,7.83
2018-04-06T02:34:24.087Z,6.60
2018-04-06T02:36:49.826Z,7.70
2018-04-06T02:39:15.570Z,7.00
2018-04-06T02:41:41.371Z,8.03
2018-04-06T02:44:07.098Z,7.10
2018-04-06T02:46:32.837Z,7.87
2018-04-06T02:48:58.581Z,7.90
2018-04-06T02:51:24.340Z,7.37
2018-04-06T02:53:50.093Z,7.87
2018-04-06T02:56:15.867Z,7.27
2018-04-06T02:58:41.618Z,7.97
2018-04-06T03:01:07.352Z,8.23
2018-04-06T03:03:33.085Z,9.87
2018-04-06T03:05:58.813Z,8.33
2018-04-06T03:08:24.554Z,8.70
2018-04-06T03:10:50.285Z,9.90
2018-04-06T03:13:16.043Z,9.60
2018-04-06T03:15:41.786Z,9.60
2018-04-06T03:18:07.514Z,10.27
2018-04-06T03:20:33.236Z,9.03
2018-04-06T03:22:58.972Z,8.67
2018-04-06T03:25:24.698Z,9.13
2018-04-06T03:27:50.472Z,9.03
2018-04-06T03:30:16.214Z,9.50
2018-04-06T03:32:41.950Z,8.17
2018-04-06T03:35:07.677Z,9.07
2018-04-06T03:37:33.416Z,8.30
2018-04-06T03:39:59.138Z,9.40
2018-04-06T03:42:24.890Z,7.73
2018-04-06T03:44:50.638Z,7.67
2018-04-06T03:47:16.450Z,8.23
2018-04-06T03:49:42.189Z,7.40
2018-04-06T03:52:07.930Z,7.93
2018-04-06T03:54:33.680Z,8.20
2018-04-06T03:56:59.409Z,9.10
2018-04-06T03:59:25.153Z,8.17
2018-04-06T04:01:50.870Z,7.73
2018-04-06T04:04:16.609Z,7.43
2018-04-06T04:06:42.345Z,8.50
2018-04-06T04:09:08.085Z,8.53
2018-04-06T04:11:33.822Z,7.40
2018-04-06T04:13:59.545Z,8.23
2018-04-06T04:16:25.287Z,7.00
2018-04-06T04:18:51.009Z,7.87
2018-04-06T04:21:16.729Z,7.40
2018-04-06T04:23:42.452Z,8.03
2018-04-06T04:26:08.179Z,8.27
2018-04-06T04:28:33.925Z,7.50
2018-04-06T04:30:59.649Z,7.67
2018-04-06T04:33:25.381Z,7.30
2018-04-06T04:35:51.159Z,7.30
2018-04-06T04:38:16.898Z,8.20
2018-04-06T04:40:42.617Z,8.33
2018-04-06T04:43:08.353Z,7.53
2018-04-06T04:45:34.078Z,8.30
2018-04-06T04:47:59.805Z,8.07
2018-04-06T04:50:25.564Z,8.47
2018-04-06T04:52:51.278Z,8.27
2018-04-06T04:55:17.029Z,8.40
2018-04-06T04:57:42.762Z,9.23
2018-04-06T05:00:08.505Z,8.63
2018-04-06T05:02:34.246Z,9.67
2018-04-06T05:04:59.981Z,9.17
2018-04-06T05:07:25.721Z,8.70
2018-04-06T05:09:51.462Z,10.07
2018-04-06T05:12:17.193Z,10.23
2018-04-06T05:14:42.952Z,9.87
2018-04-06T05:17:08.697Z,10.30
2018-04-06T05:19:34.459Z,11.60
2018-04-06T05:22:00.194Z,10.97
2018-04-06T05:24:25.988Z,10.67
2018-04-06T05:26:51.694Z,10.70
2018-04-06T05:29:17.451Z,11.33
2018-04-06T05:31:43.204Z,11.47
2018-04-06T05:34:08.966Z,11.30
2018-04-06T05:36:34.705Z,10.87
2018-04-06T05:39:00.449Z,11.00
2018-04-06T05:41:26.168Z,10.50
2018-04-06T05:43:51.908Z,10.23
2018-04-06T05:46:17.642Z,9.83
2018-04-06T05:48:43.390Z,10.03
2018-04-06T05:51:09.161Z,10.33
2018-04-06T05:53:34.906Z,9.50
2018-04-06T05:56:00.670Z,11.33
2018-04-06T05:58:26.397Z,10.37
2018-04-06T06:00:52.125Z,10.13
2018-04-06T06:03:17.846Z,10.57
2018-04-06T06:05:43.580Z,11.40
2018-04-06T06:08:09.294Z,11.77
2018-04-06T06:10:35.018Z,11.93
2018-04-06T06:13:00.737Z,12.07
2018-04-06T06:15:26.469Z,12.33
2018-04-06T06:17:52.226Z,12.00
2018-04-06T06:20:17.930Z,12.67
2018-04-06T06:22:43.646Z,11.57
2018-04-06T06:25:09.408Z,12.27
2018-04-06T06:27:35.139Z,11.50
2018-04-06T06:30:00.865Z,11.60
2018-04-06T06:32:26.586Z,11.80
2018-04-06T06:34:59.254Z,10.90
2018-04-06T06:37:24.977Z,12.23
2018-04-06T06:39:50.722Z,12.37
2018-04-06T06:42:16.445Z,11.30
2018-04-06T06:44:42.178Z,11.53
2018-04-06T06:47:08.022Z,12.97
2018-04-06T06:49:33.765Z,11.20
2018-04-06T06:51:59.506Z,10.80
2018-04-06T06:54:25.254Z,10.00
2018-04-06T06:56:50.964Z,10.53
2018-04-06T06:59:16.685Z,10.60
2018-04-06T07:01:42.406Z,10.57
2018-04-06T07:04:08.138Z,11.90
2018-04-06T07:06:33.879Z,10.23
2018-04-06T07:08:59.610Z,9.73
2018-04-06T07:11:25.338Z,10.27
2018-04-06T07:13:51.086Z,10.53
2018-04-06T07:16:16.823Z,9.27
2018-04-06T07:18:42.533Z,8.87
2018-04-06T07:21:08.257Z,10.43
2018-04-06T07:23:33.983Z,9.03
2018-04-06T07:25:59.720Z,9.57
2018-04-06T07:28:25.437Z,9.10
2018-04-06T07:30:51.170Z,8.70
2018-04-06T07:33:16.893Z,8.10
2018-04-06T07:35:42.627Z,8.20
2018-04-06T07:38:08.345Z,8.10
2018-04-06T07:40:34.093Z,8.43
2018-04-06T07:42:59.819Z,8.07
2018-04-06T07:45:32.354Z,7.40
2018-04-06T07:47:58.077Z,8.38
2018-04-06T07:50:24.914Z,7.17
2018-04-06T07:52:50.655Z,7.50
2018-04-06T07:55:16.401Z,7.00
2018-04-06T07:57:42.146Z,7.47
2018-04-06T08:00:07.898Z,7.07
2018-04-06T08:02:33.625Z,6.83
2018-04-06T08:04:59.370Z,7.00
2018-04-06T08:07:25.109Z,7.43
2018-04-06T08:09:50.850Z,6.43
2018-04-06T08:12:16.584Z,6.70
2018-04-06T08:14:42.308Z,5.53
2018-04-06T08:17:08.062Z,5.93
2018-04-06T08:19:33.794Z,6.20
2018-04-06T08:21:59.546Z,6.90
2018-04-06T08:24:25.295Z,5.93
2018-04-06T08:26:51.038Z,6.07
2018-04-06T08:29:16.759Z,6.03
2018-04-06T08:31:42.505Z,6.17
2018-04-06T08:34:08.239Z,5.43
2018-04-06T08:36:33.982Z,5.07
2018-04-06T08:38:59.734Z,5.10
2018-04-06T08:41:25.493Z,5.97
2018-04-06T08:43:51.230Z,5.10
2018-04-06T08:46:16.974Z,5.60
2018-04-06T08:48:42.715Z,5.67
2018-04-06T08:51:08.450Z,5.13
2018-04-06T08:53:34.186Z,4.40
2018-04-06T08:55:59.917Z,4.20
2018-04-06T08:58:25.634Z,4.17
2018-04-06T09:00:51.363Z,4.90
2018-04-06T09:03:17.082Z,5.10
2018-04-06T09:05:42.819Z,5.13
2018-04-06T09:08:08.530Z,4.90
2018-04-06T09:10:34.253Z,4.50
2018-04-06T09:12:59.979Z,4.40
2018-04-06T09:15:25.725Z,3.93
2018-04-06T09:17:51.442Z,3.70
2018-04-06T09:20:17.163Z,3.77
2018-04-06T09:22:42.909Z,3.83
2018-04-06T09:25:09.875Z,4.00
2018-04-06T09:27:35.602Z,3.77
2018-04-06T09:30:01.329Z,3.57
2018-04-06T09:32:27.058Z,3.50
2018-04-06T09:34:53.144Z,3.73
2018-04-06T09:37:18.903Z,3.07
2018-04-06T09:39:44.633Z,3.60
2018-04-06T09:42:10.375Z,3.43
2018-04-06T09:44:37.722Z,3.50
2018-04-06T09:47:03.453Z,3.20
2018-04-06T09:49:29.575Z,2.70
2018-04-06T09:51:55.681Z,2.97
2018-04-06T09:54:21.965Z,3.17
2018-04-06T09:56:47.741Z,3.20
2018-04-06T09:59:13.923Z,2.93
2018-04-06T10:01:40.159Z,3.63
2018-04-06T10:04:05.929Z,3.37
2018-04-06T10:06:32.879Z,2.87
2018-04-06T10:08:58.673Z,2.90
2018-04-06T10:11:24.425Z,2.97
2018-04-06T10:13:50.538Z,2.87
2018-04-06T10:16:16.305Z,3.20
2018-04-06T10:18:41.997Z,3.47
2018-04-06T10:21:08.150Z,3.30
2018-04-06T10:23:34.188Z,3.03
2018-04-06T10:25:59.954Z,2.73
2018-04-06T10:28:25.699Z,2.67
2018-04-06T10:30:51.424Z,2.73
2018-04-06T10:33:17.185Z,3.30
2018-04-06T10:35:42.943Z,3.30
2018-04-06T10:38:08.670Z,2.80
2018-04-06T10:40:34.383Z,2.83
2018-04-06T10:43:00.173Z,2.40
2018-04-06T10:45:25.988Z,2.30
2018-04-06T10:47:51.740Z,2.70
2018-04-06T10:50:17.491Z,3.23
2018-04-06T10:52:43.275Z,2.70
2018-04-06T10:55:09.093Z,3.23
2018-04-06T10:57:34.837Z,2.63
2018-04-06T11:00:00.571Z,2.43
2018-04-06T11:02:26.314Z,2.50
2018-04-06T11:04:52.046Z,2.43
2018-04-06T11:07:17.791Z,2.63
2018-04-06T11:09:43.540Z,2.23
2018-04-06T11:12:09.287Z,2.70
2018-04-06T11:14:35.035Z,2.50
2018-04-06T11:17:00.777Z,2.50
2018-04-06T11:19:26.530Z,2.07
2018-04-06T11:21:52.273Z,2.40
2018-04-06T11:24:18.042Z,2.83
2018-04-06T11:26:43.811Z,2.90
2018-04-06T11:29:09.559Z,2.93
2018-04-06T11:31:35.314Z,3.20
2018-04-06T11:34:01.046Z,3.30
2018-04-06T11:36:26.778Z,2.47
2018-04-06T11:38:52.528Z,2.90
2018-04-06T11:41:18.257Z,2.80
2018-04-06T11:43:44.002Z,3.00
2018-04-06T11:46:09.756Z,2.70
2018-04-06T11:48:35.501Z,2.90
2018-04-06T11:51:01.242Z,3.13
2018-04-06T11:53:26.994Z,2.50
2018-04-06T11:55:52.728Z,2.90
2018-04-06T11:58:18.470Z,2.90
2018-04-06T12:00:44.210Z,3.07
2018-04-06T12:03:09.950Z,2.80
2018-04-06T12:05:35.686Z,2.60
2018-04-06T12:08:01.423Z,2.57
2018-04-06T12:10:27.158Z,2.80
2018-04-06T12:12:52.906Z,2.63
2018-04-06T12:15:18.653Z,2.40
2018-04-06T12:17:44.408Z,2.50
2018-04-06T12:20:10.146Z,2.20
2018-04-06T12:22:35.886Z,2.60
2018-04-06T12:25:01.618Z,2.30
2018-04-06T12:27:27.358Z,2.50
2018-04-06T12:29:53.088Z,2.30
2018-04-06T12:32:18.839Z,2.50
2018-04-06T12:34:45.097Z,2.70
2018-04-06T12:37:10.862Z,2.27
2018-04-06T12:39:36.586Z,2.27
2018-04-06T12:42:02.323Z,2.87
2018-04-06T12:44:28.062Z,2.30
2018-04-06T12:46:53.789Z,2.37
2018-04-06T12:49:19.527Z,2.50
2018-04-06T12:51:45.262Z,2.63
2018-04-06T12:54:11.005Z,2.70
2018-04-06T12:56:36.727Z,2.80
2018-04-06T12:59:02.474Z,2.57
2018-04-06T13:01:28.209Z,2.80
2018-04-06T13:03:53.950Z,2.33
2018-04-06T13:06:19.686Z,2.43
2018-04-06T13:08:45.410Z,2.03
2018-04-06T13:11:11.138Z,2.43
2018-04-06T13:13:36.868Z,2.30
2018-04-06T13:16:02.593Z,2.10
2018-04-06T13:18:28.325Z,1.70
2018-04-06T13:20:54.063Z,1.90
2018-04-06T13:23:19.821Z,2.00
2018-04-06T13:25:45.518Z,1.57
2018-04-06T13:28:11.257Z,2.00
2018-04-06T13:30:36.998Z,2.17
2018-04-06T13:33:02.725Z,2.07
2018-04-06T13:35:28.458Z,2.33
2018-04-06T13:37:54.202Z,2.00
2018-04-06T13:40:19.921Z,1.80
2018-04-06T13:42:45.658Z,1.90
2018-04-06T13:45:11.382Z,1.90
2018-04-06T13:47:37.102Z,1.93
2018-04-06T13:50:02.846Z,2.00
2018-04-06T13:52:28.575Z,1.90
2018-04-06T13:54:54.374Z,2.07
2018-04-06T13:57:20.074Z,1.97
2018-04-06T13:59:45.810Z,1.93
2018-04-06T14:02:11.538Z,2.20
2018-04-06T14:04:37.281Z,2.20
2018-04-06T14:07:03.010Z,2.37
2018-04-06T14:09:28.749Z,2.50
2018-04-06T14:11:54.479Z,2.47
2018-04-06T14:14:20.219Z,2.17
2018-04-06T14:16:45.937Z,2.70
2018-04-06T14:19:11.681Z,2.60
2018-04-06T14:21:37.405Z,2.40
2018-04-06T14:24:03.138Z,2.90
2018-04-06T14:26:28.870Z,2.77
2018-04-06T14:28:54.602Z,2.37
2018-04-06T14:31:20.354Z,2.40
2018-04-06T14:33:46.089Z,2.30
2018-04-06T14:36:11.817Z,2.50
2018-04-06T14:38:37.566Z,2.53
2018-04-06T14:41:03.305Z,2.30
2018-04-06T14:43:29.046Z,2.50
2018-04-06T14:45:54.765Z,2.80
2018-04-06T14:48:20.518Z,2.40
2018-04-06T14:50:46.241Z,1.80
2018-04-06T14:53:11.971Z,2.20
2018-04-06T14:55:37.718Z,2.27
2018-04-06T14:58:03.462Z,2.13
2018-04-06T15:00:29.198Z,2.30
2018-04-06T15:02:54.925Z,2.00
2018-04-06T15:05:20.667Z,2.10
2018-04-06T15:07:46.388Z,2.10
2018-04-06T15:10:12.138Z,1.70
2018-04-06T15:12:37.930Z,1.70
2018-04-06T15:15:03.674Z,1.60
2018-04-06T15:17:29.396Z,1.70
2018-04-06T15:19:55.147Z,1.83
2018-04-06T15:22:20.877Z,1.80
2018-04-06T15:24:46.621Z,1.60
2018-04-06T15:27:12.355Z,1.87
2018-04-06T15:29:38.132Z,1.70
2018-04-06T15:32:03.879Z,1.67
2018-04-06T15:34:29.625Z,2.00
2018-04-06T15:36:55.356Z,1.87
2018-04-06T15:39:21.119Z,2.13
2018-04-06T15:41:46.853Z,1.80
2018-04-06T15:44:12.602Z,2.20
2018-04-06T15:46:38.347Z,2.17
2018-04-06T15:49:04.105Z,2.30
2018-04-06T15:51:29.855Z,2.40
2018-04-06T15:53:55.609Z,2.50
2018-04-06T15:56:21.331Z,2.07
2018-04-06T15:58:48.233Z,2.20
2018-04-06T16:01:14.126Z,2.30
2018-04-06T16:03:39.859Z,2.10
2018-04-06T16:06:05.576Z,2.10
2018-04-06T16:08:31.305Z,3.30
2018-04-06T16:10:57.049Z,2.87
2018-04-06T16:13:22.777Z,3.30
2018-04-06T16:15:48.505Z,2.77
2018-04-06T16:18:14.250Z,3.03
2018-04-06T16:20:39.988Z,2.37
2018-04-06T16:23:05.732Z,2.43
2018-04-06T16:25:31.462Z,2.23
2018-04-06T16:27:57.197Z,2.80
2018-04-06T16:30:22.929Z,2.20
2018-04-06T16:32:48.675Z,2.80
2018-04-06T16:35:14.722Z,2.77
2018-04-06T16:37:40.456Z,2.70
2018-04-06T16:40:06.194Z,2.60
2018-04-06T16:42:31.928Z,2.80
2018-04-06T16:44:57.678Z,2.70
2018-04-06T16:47:23.463Z,2.50
2018-04-06T16:49:49.168Z,2.70
2018-04-06T16:52:14.934Z,2.43
2018-04-06T16:54:40.637Z,2.63
2018-04-06T16:57:06.357Z,2.47
2018-04-06T16:59:32.148Z,2.50
2018-04-06T17:01:57.848Z,3.10
2018-04-06T17:04:23.568Z,2.30
2018-04-06T17:06:49.312Z,2.53
2018-04-06T17:09:15.038Z,2.40
2018-04-06T17:11:40.782Z,2.60
2018-04-06T17:14:06.517Z,2.70
2018-04-06T17:16:32.259Z,2.50
2018-04-06T17:18:57.985Z,2.67
2018-04-06T17:21:23.726Z,2.57
2018-04-06T17:23:49.463Z,4.30
2018-04-06T17:26:15.195Z,4.23
2018-04-06T17:28:40.930Z,4.90
2018-04-06T17:31:06.657Z,4.60
2018-04-06T17:33:32.390Z,5.10
2018-04-06T17:35:58.118Z,4.30
2018-04-06T17:38:23.838Z,2.97
2018-04-06T17:40:49.582Z,2.90
2018-04-06T17:43:15.322Z,2.53
2018-04-06T17:45:41.039Z,2.57
2018-04-06T17:48:06.766Z,2.50
2018-04-06T17:50:32.498Z,2.47
2018-04-06T17:52:58.219Z,2.73
2018-04-06T17:55:24.028Z,2.40
2018-04-06T17:57:49.766Z,2.53
2018-04-06T18:00:15.513Z,2.60
2018-04-06T18:02:41.262Z,2.53
2018-04-06T18:05:07.009Z,2.10
2018-04-06T18:07:32.754Z,2.73
2018-04-06T18:09:58.491Z,4.23
2018-04-06T18:12:24.234Z,10.80
2018-04-06T18:14:50.010Z,8.57
2018-04-06T18:17:15.751Z,6.23
2018-04-06T18:19:41.489Z,4.90
2018-04-06T18:22:07.236Z,5.83
2018-04-06T18:24:32.969Z,5.63
2018-04-06T18:26:58.714Z,5.07
2018-04-06T18:29:24.444Z,5.47
2018-04-06T18:31:50.194Z,5.47
2018-04-06T18:34:15.938Z,6.30
2018-04-06T18:36:41.691Z,7.13
2018-04-06T18:39:07.429Z,6.70
2018-04-06T18:41:33.179Z,7.20
2018-04-06T18:43:58.930Z,6.47
2018-04-06T18:46:24.673Z,6.30
2018-04-06T18:48:50.419Z,6.10
2018-04-06T18:51:16.211Z,5.43
2018-04-06T18:53:41.946Z,5.40
2018-04-06T18:56:07.691Z,4.83
2018-04-06T18:58:33.452Z,4.57
2018-04-06T19:00:59.157Z,4.30
2018-04-06T19:03:24.889Z,4.37
2018-04-06T19:05:50.621Z,4.23
2018-04-06T19:08:16.392Z,4.40
2018-04-06T19:10:42.137Z,4.10
2018-04-06T19:13:07.858Z,4.43
2018-04-06T19:15:33.582Z,4.00
2018-04-06T19:17:59.314Z,4.67
2018-04-06T19:20:25.033Z,4.43
2018-04-06T19:22:50.773Z,5.13
2018-04-06T19:25:16.493Z,4.67
2018-04-06T19:27:42.216Z,4.40
2018-04-06T19:30:08.030Z,4.47
2018-04-06T19:32:33.766Z,4.20
2018-04-06T19:34:59.492Z,4.40
2018-04-06T19:37:25.226Z,4.83
2018-04-06T19:39:50.962Z,4.67
2018-04-06T19:42:16.705Z,5.03
2018-04-06T19:44:42.434Z,4.90
2018-04-06T19:47:08.166Z,4.93
2018-04-06T19:49:33.934Z,4.53
2018-04-06T19:51:59.665Z,4.33
2018-04-06T19:54:25.396Z,4.77
2018-04-06T19:56:51.133Z,4.67
2018-04-06T19:59:16.863Z,4.50
2018-04-06T20:01:42.620Z,4.57
2018-04-06T20:04:08.385Z,4.07
2018-04-06T20:06:34.110Z,4.40
2018-04-06T20:08:59.893Z,3.93
2018-04-06T20:11:25.557Z,3.90
2018-04-06T20:13:51.273Z,3.97
2018-04-06T20:16:17.002Z,3.67
2018-04-06T20:18:42.729Z,3.97
2018-04-06T20:21:08.455Z,3.83
2018-04-06T20:23:34.194Z,3.77
2018-04-06T20:25:59.913Z,3.40
2018-04-06T20:28:25.642Z,3.50
2018-04-06T20:30:51.379Z,3.73
2018-04-06T20:33:17.104Z,3.20
2018-04-06T20:35:42.825Z,3.23
2018-04-06T20:38:08.570Z,3.53
2018-04-06T20:40:34.304Z,3.33
2018-04-06T20:43:00.039Z,3.53
2018-04-06T20:45:25.761Z,3.80
2018-04-06T20:47:51.508Z,4.17
2018-04-06T20:50:17.265Z,3.40
2018-04-06T20:52:42.986Z,3.80
2018-04-06T20:55:08.734Z,3.53
2018-04-06T20:57:34.485Z,3.50
2018-04-06T21:00:00.225Z,3.53
2018-04-06T21:02:25.975Z,3.73
2018-04-06T21:04:51.710Z,4.00
2018-04-06T21:07:17.445Z,3.73
2018-04-06T21:09:43.169Z,4.03
2018-04-06T21:12:08.914Z,3.80
2018-04-06T21:14:34.675Z,3.97
2018-04-06T21:17:00.426Z,3.70
2018-04-06T21:19:26.162Z,3.77
2018-04-06T21:21:51.934Z,3.57
2018-04-06T21:24:17.670Z,3.70
2018-04-06T21:26:43.406Z,3.40
2018-04-06T21:29:09.178Z,3.90
2018-04-06T21:31:34.973Z,3.40
2018-04-06T21:34:00.662Z,3.50
2018-04-06T21:36:26.381Z,3.20
2018-04-06T21:38:52.121Z,3.57
2018-04-06T21:41:17.859Z,3.33
2018-04-06T21:43:43.602Z,3.10
2018-04-06T21:46:09.334Z,2.60
2018-04-06T21:48:35.085Z,3.23
2018-04-06T21:51:00.824Z,2.90
2018-04-06T21:53:26.674Z,2.70
2018-04-06T21:55:52.427Z,2.77
2018-04-06T21:58:18.184Z,2.43
2018-04-06T22:00:43.959Z,2.30
2018-04-06T22:03:09.665Z,2.63
2018-04-06T22:05:35.397Z,2.33
2018-04-06T22:08:01.127Z,2.30
2018-04-06T22:10:26.906Z,2.63
2018-04-06T22:12:52.652Z,2.63
2018-04-06T22:15:18.381Z,2.23
2018-04-06T22:17:44.109Z,2.10
2018-04-06T22:20:09.827Z,1.80
2018-04-06T22:22:35.558Z,1.90
2018-04-06T22:25:01.298Z,1.90
2018-04-06T22:27:27.093Z,1.77
2018-04-06T22:29:52.839Z,1.90
2018-04-06T22:32:18.583Z,2.00
2018-04-06T22:34:44.333Z,2.00
2018-04-06T22:37:10.068Z,2.00
2018-04-06T22:39:35.794Z,1.80
2018-04-06T22:42:01.536Z,1.87
2018-04-06T22:44:27.265Z,2.10
2018-04-06T22:46:52.977Z,1.77
2018-04-06T22:49:19.519Z,2.27
2018-04-06T22:51:45.249Z,2.00
2018-04-06T22:54:10.997Z,2.43
2018-04-06T22:56:36.725Z,1.80
2018-04-06T22:59:02.464Z,2.20
2018-04-06T23:01:28.190Z,2.63
2018-04-06T23:03:53.942Z,2.13
2018-04-06T23:06:19.662Z,2.30
2018-04-06T23:08:45.414Z,2.40
2018-04-06T23:11:11.158Z,1.90
2018-04-06T23:13:36.892Z,2.40
2018-04-06T23:16:02.680Z,1.87
2018-04-06T23:18:28.465Z,2.00
2018-04-06T23:20:54.198Z,1.87
2018-04-06T23:23:19.950Z,2.37
2018-04-06T23:25:45.686Z,2.20
2018-04-06T23:28:11.430Z,2.10
2018-04-06T23:30:37.162Z,2.10
2018-04-06T23:33:02.914Z,2.00
2018-04-06T23:35:28.654Z,1.93
2018-04-06T23:37:54.545Z,2.40
2018-04-06T23:40:20.275Z,2.20
2018-04-06T23:42:46.047Z,2.30
2018-04-06T23:45:11.792Z,2.70
2018-04-06T23:47:37.517Z,3.00
2018-04-06T23:50:03.253Z,2.40
2018-04-06T23:52:29.221Z,2.33
2018-04-06T23:54:54.981Z,2.20
2018-04-06T23:57:20.714Z,2.33
2018-04-06T23:59:46.461Z,2.27
